Flight Track Log - Related Links

Times and Time Zones

All times are in EDT time to prevent confusion due to time zone crossing. See the SWA2520 flight status page for this flight to view local times or setup timezone preferences in your user account.

Time Position Orientation Groundspeed Altitude Reporting Facility
EDT Latitude Longitude Course Direction KTS MPH feet Rate Location/Type
Fri 07:32:37 PM 37.4000 -121.9667 15° North 181 208 2,100  Level Northern Cal TRACON
Fri 07:33:37 PM 37.4500 -121.9500 15° North 238 274 4,900 1,450 Climbing Northern Cal TRACON
Fri 07:34:37 PM 37.4167 -121.8833 122° Southeast 235 270 5,000 771 Climbing Northern Cal TRACON
Fri 07:35:57 PM 37.3517 -121.8144 140° Southeast 233 268 6,700 2,383 Climbing Oakland Center
Fri 07:36:58 PM 37.2936 -121.7461 137° Southeast 283 326 10,600 3,317 Climbing Oakland Center
Fri 07:38:00 PM 37.2267 -121.6725 139° Southeast 315 362 13,500 3,317 Climbing Oakland Center
Fri 07:39:01 PM 37.1383 -121.5703 137° Southeast 352 405 17,400 3,366 Climbing Oakland Center
Fri 07:40:03 PM 37.0547 -121.4817 140° Southeast 389 448 20,400 2,976 Climbing Oakland Center
Fri 07:41:04 PM 36.9731 -121.3914 139° Southeast 392 451 23,500 2,705 Climbing Oakland Center
Fri 07:42:05 PM 36.8889 -121.2981 138° Southeast 402 463 25,900 2,244 Climbing Oakland Center
Fri 07:43:07 PM 36.7894 -121.1956 140° Southeast 424 488 28,100 2,146 Climbing Oakland Center
Fri 07:44:08 PM 36.6978 -121.0950 139° Southeast 438 504 30,300 2,293 Climbing Oakland Center
Fri 07:45:10 PM 36.6061 -120.9944 139° Southeast 439 505 32,800 2,049 Climbing Oakland Center
Fri 07:46:11 PM 36.5142 -120.8969 140° Southeast 435 501 34,500 1,073 Climbing Oakland Center
Fri 07:47:13 PM 36.4225 -120.7969 139° Southeast 439 505 35,000 244 Climbing Oakland Center
Fri 07:48:14 PM 36.3303 -120.6994 140° Southeast 437 503 35,000  Level Oakland Center
Fri 07:49:16 PM 36.2369 -120.6000 139° Southeast 442 509 35,000  Level Oakland Center
Fri 07:50:17 PM 36.1447 -120.5011 139° Southeast 439 505 35,000  Level Oakland Center
Fri 07:51:19 PM 36.0325 -120.3811 139° Southeast 441 507 35,000  Level Oakland Center
Fri 07:52:20 PM 35.9411 -120.2875 140° Southeast 423 487 35,000  Level Oakland Center
Fri 07:53:22 PM 35.8475 -120.1892 140° Southeast 437 503 35,000  Level Oakland Center
Fri 07:54:23 PM 35.7547 -120.0900 139° Southeast 438 504 35,000  Level Oakland Center
Fri 07:55:25 PM 35.6603 -119.9936 140° Southeast 438 504 35,000  Level Oakland Center
Fri 07:56:26 PM 35.5603 -119.9036 144° Southeast 440 506 35,000  Level Oakland Center
Fri 07:57:28 PM 35.4592 -119.8150 144° Southeast 440 506 35,000  Level Oakland Center
Fri 07:58:37 PM 35.3381 -119.7117 145° Southeast 442 509 35,000  Level Los Angeles Center
Fri 07:59:39 PM 35.2367 -119.6244 145° Southeast 442 509 35,000 -145 Level Los Angeles Center
Fri 08:00:41 PM 35.1358 -119.5378 145° Southeast 443 510 34,700 -1,403 Descending Los Angeles Center
Fri 08:01:43 PM 35.0350 -119.4533 146° Southeast 439 505 32,100 -2,565 Descending Los Angeles Center
Fri 08:02:45 PM 34.9336 -119.3664 145° Southeast 442 509 29,400 -2,661 Descending Los Angeles Center
Fri 08:03:47 PM 34.8150 -119.2658 145° Southeast 435 501 26,600 -2,371 Descending Los Angeles Center
Fri 08:04:49 PM 34.7214 -119.1856 145° Southeast 416 479 24,500 -1,935 Descending Los Angeles Center
Fri 08:05:51 PM 34.6378 -119.1147 145° Southeast 406 467 22,600 -2,081 Descending Los Angeles Center
Fri 08:06:53 PM 34.5292 -119.0269 146° Southeast 384 442 20,200 -2,129 Descending Los Angeles Center
Fri 08:07:55 PM 34.4417 -118.9539 145° Southeast 384 442 18,200 -1,920 Descending Los Angeles Center
Fri 08:08:58 PM 34.3561 -118.8828 146° Southeast 372 428 16,200 -2,016 Descending Los Angeles Center
Fri 08:10:00 PM 34.2592 -118.8461 163° South 369 425 14,000 -2,081 Descending Los Angeles Center
Fri 08:11:02 PM 34.1647 -118.8108 163° South 358 412 11,900 -1,694 Descending Los Angeles Center
Fri 08:12:04 PM 34.0644 -118.7736 163° South 335 386 10,500 -919 Descending Los Angeles Center
Fri 08:13:06 PM 34.0317 -118.6861 114° Southeast 271 312 10,000 -871 Descending Los Angeles Center
Fri 08:14:08 PM 34.0228 -118.5953 97° East 272 313 8,700 -1,403 Descending Los Angeles Center
Fri 08:15:10 PM 34.0139 -118.5028 97° East 277 319 7,100 -1,306 Descending Los Angeles Center
Fri 08:16:12 PM 34.0142 -118.4169 90° East 262 302 6,000 -1,548 Descending Los Angeles Center
Fri 08:17:14 PM 34.0247 -118.3264 82° East 264 304 3,900 -1,790 Descending Los Angeles Center
Fri 08:18:16 PM 34.0214 -118.2447 93° East 255 293 2,300 -919 Descending Los Angeles Center
Fri 08:19:18 PM 33.9708 -118.2842 213° Southwest 205 236 2,000 -480 Descending Los Angeles Center
Fri 08:20:21 PM 33.9578 -118.3325 252° West 174 200 1,300 -672 Descending Los Angeles Center
Fri 08:21:23 PM 33.9558 -118.3747 267° West 146 168 600 -581 Descending Los Angeles Center
Fri 08:22:25 PM 33.9508 -118.4197 262° West 135 155 100 -484 Descending Los Angeles Center
Fri 08:24:00 PM 33.9425 -118.4081 231° Southwest  Level Estimated

Login

Don't have an account? Register now (free) for customized features, flight alerts, and more!